VEAT/IXA METAR and TAF weather

Enter ICAO airport designator
Station Type Date Time Source
VEAT METAR 2022/06/29 01:00 UTC NOAA

VEAT 290100Z 00000KT 4000 BR SCT020 BKN100 26/25 Q1004 NOSIG


Station Type Date Time Source
VEAT Decoded METAR 2022/06/29 01:00 UTC NOAA

Agartala, India (VEAT) 23-53N 091-15E 16M
Jun 28, 2022 - 09:00 PM EDT / 2022.06.29 0100 UTC
Wind: Calm:0
Visibility: 2 mile(s):0
Sky conditions: mostly cloudy
Weather: mist
Temperature: 78 F (26 C)
Dew Point: 77 F (25 C)
Relative Humidity: 94%
Pressure (altimeter): 29.65 in. Hg (1004 hPa)
ob: VEAT 290100Z 00000KT 4000 BR SCT020 BKN100 26/25 Q1004 NOSIG
cycle: 1

Station Type Date Time Source
VEAT TAF 2022/06/28 12:00 UTC NOAA

TAF VEAT 281100Z 2812/2918 21003KT 4000 BR FEW018 SCT100
TEMPO 2814/2816 21005KT 2500 -TSRA SCT018 FEW030CB BKN100
BECMG 2818/2820 18003KT 3000 BR SCT018 BKN100
BECMG 2903/2905 5000 BR SCT018 SCT025 BKN100
TEMPO 2907/2910 21005KT 3000 -TSRA SCT018 FEW030 B BKN100
BECMG 2913/2915 18003KT 3000 BR SCT018 BKN100

Example: see airport list